Time;durP1;ratioP1;P1;durP2;ratioP2;P2;SDS_P1;SDS_P2;PMS_P1;PMS_P2;Temp;Humidity;BMP_temperature;BMP_pressure;BME280_temperature;BME280_humidity;BME280_pressure;Samples;Min_cycle;Max_cycle;Signal;HPM_P1;HPM_P2
2022/01/26 00:00:07;;;;;;;5.47;1.98;;;4.80;94.90;;;;;;5034217;28;20354;-89
2022/01/26 00:08:04;;;;;;;3.72;1.92;;;4.90;94.70;;;;;;5034134;28;20086;-90
2022/01/26 00:10:30;;;;;;;4.93;2.00;;;4.80;94.70;;;;;;5034030;28;20022;-90
2022/01/26 00:12:56;;;;;;;4.00;1.70;;;4.90;94.70;;;;;;5015665;28;20057;-89
2022/01/26 00:15:23;;;;;;;5.07;2.47;;;4.90;94.80;;;;;;5033618;28;20021;-90
2022/01/26 00:17:52;;;;;;;5.43;2.00;;;4.90;94.60;;;;;;5015617;28;20268;-87
2022/01/26 00:20:24;;;;;;;4.55;1.77;;;4.90;94.60;;;;;;5015458;28;20469;-87
2022/01/26 00:25:32;;;;;;;3.50;2.10;;;4.90;94.50;;;;;;5033335;28;20076;-89
2022/01/26 00:38:39;;;;;;;4.35;2.03;;;4.90;94.70;;;;;;5033239;28;20106;-89
2022/01/26 00:41:12;;;;;;;4.68;2.10;;;5.00;94.50;;;;;;5014916;28;20509;-89
2022/01/26 00:43:45;;;;;;;6.75;2.38;;;5.00;94.60;;;;;;5032888;28;20044;-88
2022/01/26 00:46:11;;;;;;;5.57;2.25;;;5.00;94.70;;;;;;5015048;28;20060;-89
2022/01/26 00:48:38;;;;;;;3.65;1.85;;;4.90;95.00;;;;;;5035616;28;20022;-88
2022/01/26 00:51:06;;;;;;;4.47;1.90;;;5.00;94.90;;;;;;5034435;28;20025;-89
2022/01/26 00:53:41;;;;;;;3.33;1.95;;;5.00;94.80;;;;;;5032404;28;20021;-88
2022/01/26 00:56:07;;;;;;;6.63;2.38;;;5.10;94.70;;;;;;5032731;28;20029;-90
2022/01/26 00:58:34;;;;;;;6.45;2.25;;;5.00;94.90;;;;;;5032688;28;20540;-89
2022/01/26 01:01:02;;;;;;;8.30;2.40;;;4.90;95.10;;;;;;5033415;28;20369;-89
2022/01/26 01:03:31;;;;;;;3.67;2.38;;;4.90;95.10;;;;;;5009087;28;20119;-89
2022/01/26 01:06:45;;;;;;;4.57;1.90;;;4.90;95.10;;;;;;5012499;28;20462;-88
2022/01/26 01:08:47;;;;;;;5.20;2.13;;;5.00;95.00;;;;;;5004539;28;20026;-89
2022/01/26 01:11:14;;;;;;;3.42;1.90;;;5.00;94.80;;;;;;5012932;28;20025;-89
2022/01/26 01:13:42;;;;;;;3.08;1.88;;;5.00;94.80;;;;;;4994599;28;20074;-90
2022/01/26 01:16:16;;;;;;;4.50;2.20;;;4.90;94.90;;;;;;4994267;28;20026;-90
2022/01/26 01:24:14;;;;;;;4.38;1.90;;;4.90;95.00;;;;;;5012388;28;20026;-88
2022/01/26 01:29:29;;;;;;;4.13;1.88;;;5.00;95.30;;;;;;5012147;28;20172;-89
2022/01/26 01:32:01;;;;;;;3.33;2.17;;;5.00;95.10;;;;;;4994258;28;20033;-87
2022/01/26 01:34:40;;;;;;;3.15;1.95;;;4.90;95.30;;;;;;5012151;28;20513;-89
2022/01/26 01:37:09;;;;;;;3.92;1.90;;;4.80;95.20;;;;;;4994332;28;20036;-88
2022/01/26 01:39:36;;;;;;;3.92;2.03;;;4.90;95.40;;;;;;5012069;28;20017;-89
2022/01/26 01:42:05;;;;;;;4.10;2.00;;;4.90;95.30;;;;;;5011790;28;20191;-89
2022/01/26 01:44:37;;;;;;;5.22;2.20;;;5.00;95.80;;;;;;4993839;28;20025;-89
2022/01/26 01:47:06;;;;;;;5.47;2.30;;;5.10;95.60;;;;;;5012130;28;20028;-89
2022/01/26 01:49:32;;;;;;;3.30;1.70;;;5.10;95.70;;;;;;5011760;28;20034;-87
2022/01/26 01:52:02;;;;;;;3.95;1.95;;;5.20;95.10;;;;;;5011647;28;20094;-89
2022/01/26 01:54:28;;;;;;;3.03;1.65;;;5.20;95.30;;;;;;4995041;28;20483;-89
2022/01/26 01:56:57;;;;;;;3.67;2.28;;;5.20;95.50;;;;;;4995291;28;20030;-89
2022/01/26 01:59:30;;;;;;;3.70;1.85;;;5.20;95.80;;;;;;5011272;28;20109;-88
2022/01/26 02:01:57;;;;;;;3.33;1.70;;;5.10;95.20;;;;;;5012012;28;20055;-89
2022/01/26 02:04:23;;;;;;;3.30;1.90;;;5.10;95.10;;;;;;5023994;28;20537;-89
2022/01/26 02:06:49;;;;;;;4.55;2.28;;;5.10;95.20;;;;;;5031677;28;20026;-89
2022/01/26 02:09:15;;;;;;;3.20;2.15;;;5.10;95.20;;;;;;5031262;28;20029;-89
2022/01/26 02:11:53;;;;;;;7.13;2.50;;;5.10;95.50;;;;;;5031345;28;20112;-89
2022/01/26 02:14:31;;;;;;;4.70;2.28;;;5.10;97.30;;;;;;5031375;28;20026;-88
2022/01/26 02:50:24;;;;;;;6.57;2.58;;;5.50;95.50;;;;;;5030866;28;20224;-89
2022/01/26 02:55:48;;;;;;;4.10;2.00;;;5.60;95.30;;;;;;5031231;28;20493;-89
2022/01/26 02:58:52;;;;;;;4.40;2.30;;;5.70;95.20;;;;;;5031303;28;20025;-89
2022/01/26 03:01:40;;;;;;;4.30;2.10;;;5.70;95.40;;;;;;5030649;28;20041;-88
2022/01/26 03:06:49;;;;;;;6.18;2.45;;;5.70;95.80;;;;;;5030234;28;20048;-89
2022/01/26 03:09:23;;;;;;;4.68;2.30;;;5.70;96.10;;;;;;5029084;28;20390;-87
2022/01/26 03:11:50;;;;;;;4.15;2.20;;;5.70;95.80;;;;;;5030860;28;20018;-89
2022/01/26 03:17:05;;;;;;;4.05;2.17;;;5.60;95.40;;;;;;5030882;28;20026;-90
2022/01/26 03:19:41;;;;;;;5.30;2.30;;;5.40;96.10;;;;;;5033907;28;20161;-89
2022/01/26 03:30:02;;;;;;;6.20;2.45;;;5.30;95.70;;;;;;5034216;28;20379;-90
2022/01/26 03:33:08;;;;;;;3.55;2.03;;;5.20;95.80;;;;;;5032953;28;20394;-89
2022/01/26 03:35:45;;;;;;;4.78;2.17;;;5.20;96.20;;;;;;5033888;28;20033;-88
2022/01/26 03:38:29;;;;;;;4.15;2.30;;;5.10;96.20;;;;;;5033683;28;20124;-88
2022/01/26 03:41:15;;;;;;;4.85;2.10;;;5.00;96.50;;;;;;5033785;28;20368;-87
2022/01/26 03:43:42;;;;;;;11.13;2.25;;;5.00;96.20;;;;;;5033539;28;20111;-87
2022/01/26 03:46:08;;;;;;;5.32;2.03;;;5.00;96.50;;;;;;5031717;28;20036;-88
2022/01/26 03:48:34;;;;;;;4.17;2.03;;;5.00;96.50;;;;;;5034079;28;20022;-88
2022/01/26 03:51:01;;;;;;;4.40;2.15;;;5.00;96.00;;;;;;5033179;28;20272;-88
2022/01/26 03:53:27;;;;;;;4.47;2.30;;;5.10;95.70;;;;;;5034271;28;20040;-88
2022/01/26 03:55:53;;;;;;;5.50;3.17;;;5.20;95.80;;;;;;5049142;28;20112;-87
2022/01/26 03:58:20;;;;;;;6.80;2.70;;;5.20;96.00;;;;;;5034800;28;20032;-89
2022/01/26 04:00:46;;;;;;;3.95;2.65;;;5.20;95.70;;;;;;5032470;28;20025;-89
2022/01/26 04:03:12;;;;;;;4.93;2.53;;;5.30;95.80;;;;;;5033821;28;20031;-87
2022/01/26 04:05:38;;;;;;;5.20;2.25;;;5.30;96.00;;;;;;5034371;28;20299;-88
2022/01/26 04:08:11;;;;;;;4.25;2.33;;;5.40;95.60;;;;;;5033866;28;20029;-88
2022/01/26 04:13:03;;;;;;;5.82;2.08;;;5.40;95.30;;;;;;5033992;28;20048;-89
2022/01/26 04:15:33;;;;;;;3.17;1.95;;;5.40;95.60;;;;;;5015814;28;20025;-89
2022/01/26 04:18:01;;;;;;;5.32;1.95;;;5.50;95.50;;;;;;5033225;28;20036;-88
2022/01/26 04:20:31;;;;;;;5.43;2.10;;;5.50;95.40;;;;;;5033781;28;20100;-88
2022/01/26 04:23:24;;;;;;;3.60;1.90;;;5.50;95.60;;;;;;5015636;28;20124;-88
2022/01/26 04:25:46;;;;;;;7.03;1.92;;;5.50;95.40;;;;;;5032073;28;20025;-84
2022/01/26 04:28:18;;;;;;;3.38;2.00;;;5.50;95.80;;;;;;5016207;28;20538;-88
2022/01/26 04:30:45;;;;;;;5.47;1.95;;;5.50;95.60;;;;;;5015390;28;20079;-88
2022/01/26 04:33:11;;;;;;;5.67;1.80;;;5.50;95.40;;;;;;5034243;28;20033;-89
2022/01/26 04:35:42;;;;;;;3.40;1.52;;;5.50;95.50;;;;;;5034157;28;20334;-88
2022/01/26 04:38:23;;;;;;;3.47;1.95;;;5.40;95.60;;;;;;5034187;28;20473;-89
2022/01/26 04:43:39;;;;;;;6.18;2.20;;;5.50;95.30;;;;;;5003053;28;20049;-89
2022/01/26 04:46:07;;;;;;;4.72;2.30;;;5.50;95.20;;;;;;5034123;28;20097;-89
2022/01/26 04:48:33;;;;;;;4.68;2.17;;;5.50;95.30;;;;;;5034013;28;20064;-88
2022/01/26 04:50:59;;;;;;;3.03;1.77;;;5.50;95.60;;;;;;5033645;28;20029;-89
2022/01/26 04:53:25;;;;;;;3.95;2.13;;;5.50;96.00;;;;;;5033837;28;20125;-89
2022/01/26 04:55:52;;;;;;;6.30;1.90;;;5.50;95.50;;;;;;5033562;28;20501;-89
2022/01/26 04:58:18;;;;;;;3.47;1.90;;;5.60;96.10;;;;;;5033404;28;20029;-88
2022/01/26 05:00:45;;;;;;;4.82;2.00;;;5.60;95.50;;;;;;5033223;28;20354;-88
2022/01/26 05:03:11;;;;;;;3.63;1.98;;;5.60;95.70;;;;;;5033550;28;20038;-89
2022/01/26 05:05:37;;;;;;;4.60;2.20;;;5.60;95.60;;;;;;5034216;28;20118;-88
2022/01/26 05:08:04;;;;;;;6.00;2.00;;;5.60;95.70;;;;;;5033689;28;20033;-87
2022/01/26 05:10:30;;;;;;;3.38;1.77;;;5.70;95.90;;;;;;5033186;28;20022;-89
2022/01/26 05:12:56;;;;;;;4.97;2.00;;;5.70;96.20;;;;;;5033384;28;20026;-89
2022/01/26 05:15:24;;;;;;;3.83;1.88;;;5.70;95.90;;;;;;5033289;28;20029;-88
2022/01/26 05:17:51;;;;;;;4.15;2.00;;;5.70;95.70;;;;;;5033940;28;20017;-89
2022/01/26 05:20:17;;;;;;;4.20;1.90;;;5.70;95.60;;;;;;5034063;28;20029;-89
2022/01/26 05:22:44;;;;;;;6.53;2.28;;;5.80;95.70;;;;;;5034211;28;20034;-89
2022/01/26 05:25:11;;;;;;;7.28;2.03;;;5.80;95.70;;;;;;5033948;28;20072;-89
2022/01/26 05:27:38;;;;;;;3.25;1.88;;;5.80;95.80;;;;;;5034639;28;20025;-89
2022/01/26 05:30:06;;;;;;;3.97;1.83;;;5.80;95.70;;;;;;5017794;28;20029;-87
2022/01/26 05:32:32;;;;;;;4.38;2.25;;;5.80;95.70;;;;;;5038824;28;20096;-89
2022/01/26 05:34:58;;;;;;;3.33;1.70;;;5.80;95.90;;;;;;5016213;28;20031;-88
2022/01/26 05:37:24;;;;;;;6.43;2.50;;;5.80;95.80;;;;;;5016242;28;20048;-88
2022/01/26 05:39:50;;;;;;;2.93;1.70;;;5.80;95.70;;;;;;5015599;28;20029;-88
2022/01/26 05:42:17;;;;;;;3.00;1.70;;;5.80;95.70;;;;;;5034963;28;20037;-89
2022/01/26 05:44:45;;;;;;;4.40;2.15;;;5.80;95.60;;;;;;5033866;28;20079;-88
2022/01/26 05:47:16;;;;;;;4.75;1.90;;;5.80;95.70;;;;;;5033226;28;20025;-88
2022/01/26 05:49:42;;;;;;;3.67;2.03;;;5.70;95.80;;;;;;5018783;28;20499;-87
2022/01/26 05:52:09;;;;;;;3.95;2.28;;;5.70;96.20;;;;;;5034184;28;20034;-88
2022/01/26 05:54:35;;;;;;;3.25;2.15;;;5.70;96.50;;;;;;5035268;28;20014;-88
2022/01/26 05:57:01;;;;;;;3.15;1.90;;;5.70;96.40;;;;;;5016065;28;20084;-89
2022/01/26 05:59:27;;;;;;;2.78;1.67;;;5.70;96.30;;;;;;5034626;28;20041;-89
2022/01/26 06:01:53;;;;;;;3.60;2.03;;;5.80;96.30;;;;;;5015989;28;20493;-89
2022/01/26 06:04:19;;;;;;;4.70;2.20;;;5.80;96.30;;;;;;5024198;28;20370;-89
2022/01/26 06:06:46;;;;;;;3.35;2.13;;;5.80;96.40;;;;;;5032317;28;20827;-89
2022/01/26 06:09:12;;;;;;;4.85;1.98;;;5.90;96.20;;;;;;5033333;28;20021;-88
2022/01/26 06:11:38;;;;;;;3.10;1.80;;;5.80;96.20;;;;;;5033300;28;20025;-88
2022/01/26 06:14:04;;;;;;;3.63;2.13;;;5.90;96.20;;;;;;5032546;28;20029;-87
2022/01/26 06:16:30;;;;;;;4.45;1.98;;;5.80;96.20;;;;;;5033864;28;20077;-89
2022/01/26 06:18:56;;;;;;;4.72;1.95;;;5.80;96.20;;;;;;5033022;28;20032;-84
2022/01/26 06:21:22;;;;;;;4.82;2.13;;;5.80;96.30;;;;;;5033357;28;20037;-84
2022/01/26 06:23:48;;;;;;;3.78;1.98;;;5.70;96.30;;;;;;5033929;28;20083;-83
2022/01/26 06:26:14;;;;;;;4.05;1.95;;;5.70;96.40;;;;;;5033378;28;20037;-82
2022/01/26 06:28:41;;;;;;;4.38;2.35;;;5.70;96.20;;;;;;5033361;28;20107;-83
2022/01/26 06:31:11;;;;;;;3.83;2.20;;;5.70;96.10;;;;;;5033817;28;20040;-84
2022/01/26 06:33:40;;;;;;;4.90;2.15;;;5.80;96.40;;;;;;5032927;28;20269;-83
2022/01/26 06:36:06;;;;;;;4.85;2.00;;;6.20;96.00;;;;;;5032858;28;20140;-83
2022/01/26 06:38:35;;;;;;;4.65;1.98;;;6.70;95.40;;;;;;5031092;28;20039;-82
2022/01/26 06:41:01;;;;;;;3.85;1.92;;;7.20;94.50;;;;;;5032385;28;20025;-82
2022/01/26 06:43:30;;;;;;;4.78;2.10;;;7.80;93.80;;;;;;5032810;28;20037;-83
2022/01/26 06:46:06;;;;;;;5.10;2.22;;;8.30;93.40;;;;;;5032728;28;20017;-83
2022/01/26 06:48:57;;;;;;;4.95;2.00;;;8.70;92.60;;;;;;5033398;28;20442;-83
2022/01/26 06:51:23;;;;;;;6.28;1.85;;;9.30;91.70;;;;;;5031759;28;20067;-82
2022/01/26 06:53:49;;;;;;;5.22;2.20;;;10.00;90.70;;;;;;5034510;28;20040;-84
2022/01/26 06:56:15;;;;;;;4.40;2.20;;;10.50;90.40;;;;;;5035260;28;20025;-83
2022/01/26 06:58:41;;;;;;;4.03;1.80;;;11.30;88.90;;;;;;5036024;28;20025;-84
2022/01/26 07:01:07;;;;;;;4.95;1.80;;;12.20;86.40;;;;;;5035011;28;20031;-82
2022/01/26 07:03:33;;;;;;;3.47;1.70;;;12.70;84.50;;;;;;5035045;28;20057;-85
2022/01/26 07:05:59;;;;;;;4.57;1.40;;;13.00;83.70;;;;;;5036546;28;20056;-83
2022/01/26 07:08:25;;;;;;;5.30;1.70;;;13.30;82.80;;;;;;5017616;28;20256;-83
2022/01/26 07:10:55;;;;;;;4.63;1.97;;;14.00;81.90;;;;;;5035116;28;20076;-83
2022/01/26 07:13:23;;;;;;;4.68;1.70;;;14.80;80.40;;;;;;5035664;28;20268;-85
2022/01/26 07:21:26;;;;;;;4.38;2.15;;;17.30;74.10;;;;;;5035694;28;20091;-87
2022/01/26 07:23:57;;;;;;;6.50;1.92;;;18.30;71.00;;;;;;5035947;28;20033;-86
2022/01/26 07:26:29;;;;;;;3.85;1.88;;;18.90;69.90;;;;;;5037103;28;20040;-91
2022/01/26 07:28:58;;;;;;;7.60;1.92;;;19.40;68.70;;;;;;5040398;28;20025;-92
2022/01/26 07:31:25;;;;;;;5.18;2.05;;;18.40;67.30;;;;;;5037358;28;20022;-87
2022/01/26 07:33:56;;;;;;;5.05;1.92;;;17.60;69.70;;;;;;5036051;28;20032;-88
2022/01/26 07:36:24;;;;;;;4.25;1.98;;;17.20;70.00;;;;;;5017610;28;20033;-89
2022/01/26 07:38:52;;;;;;;4.97;1.70;;;16.70;70.20;;;;;;5035721;28;20089;-88
2022/01/26 07:41:18;;;;;;;3.95;1.60;;;16.10;72.10;;;;;;5035446;28;20033;-88
2022/01/26 07:43:45;;;;;;;4.07;1.95;;;16.40;71.50;;;;;;5035646;28;20017;-88
2022/01/26 07:46:12;;;;;;;5.38;1.73;;;16.40;71.20;;;;;;5035482;28;20022;-87
2022/01/26 07:48:38;;;;;;;7.22;1.55;;;15.90;72.30;;;;;;5035421;28;20028;-87
2022/01/26 07:51:04;;;;;;;4.90;1.85;;;15.70;73.90;;;;;;5037607;28;20022;-88
2022/01/26 07:53:31;;;;;;;3.88;1.83;;;15.60;73.80;;;;;;5036654;28;20047;-87
2022/01/26 07:55:58;;;;;;;5.15;2.10;;;14.60;76.10;;;;;;5017743;28;20056;-87
2022/01/26 07:58:25;;;;;;;4.03;1.67;;;13.70;78.50;;;;;;5035596;28;20021;-88
2022/01/26 08:00:51;;;;;;;;;;;13.20;81.40;;;;;;5017450;28;20125;-84
2022/01/26 08:03:39;;;;;;;4.63;1.90;;;13.10;81.10;;;;;;5017280;28;20388;-82
2022/01/26 08:06:05;;;;;;;4.10;1.75;;;13.00;81.90;;;;;;5036127;28;20301;-85
2022/01/26 08:08:31;;;;;;;9.02;2.00;;;12.60;81.50;;;;;;5034971;28;20037;-85
2022/01/26 08:10:59;;;;;;;4.18;1.60;;;12.20;82.90;;;;;;5035955;28;20084;-85
2022/01/26 08:13:25;;;;;;;6.90;2.20;;;11.90;83.30;;;;;;5036505;28;20076;-84
2022/01/26 08:15:56;;;;;;;4.65;2.00;;;11.40;85.80;;;;;;5034412;28;20091;-80
2022/01/26 08:18:24;;;;;;;3.88;1.90;;;11.20;86.40;;;;;;5035546;28;20030;-86
2022/01/26 08:20:50;;;;;;;4.45;1.88;;;11.20;87.00;;;;;;5035138;28;20034;-87
2022/01/26 08:23:19;;;;;;;3.55;1.90;;;11.30;86.90;;;;;;5036613;28;20036;-86
2022/01/26 08:25:45;;;;;;;5.53;2.13;;;11.50;87.20;;;;;;5017548;28;20037;-87
2022/01/26 08:28:21;;;;;;;3.47;1.80;;;11.90;85.80;;;;;;5035130;28;20026;-87
2022/01/26 08:30:47;;;;;;;9.60;2.13;;;12.30;84.50;;;;;;5035101;28;20458;-86
2022/01/26 08:33:13;;;;;;;17.87;3.87;;;12.60;83.40;;;;;;5035398;28;20033;-83
2022/01/26 08:35:41;;;;;;;6.37;2.07;;;12.90;85.10;;;;;;5035675;28;20029;-79
2022/01/26 08:38:19;;;;;;;7.30;2.40;;;13.00;84.20;;;;;;5037781;28;20036;-85
2022/01/26 08:40:47;;;;;;;9.65;2.30;;;13.10;88.00;;;;;;5036869;28;20124;-88
2022/01/26 08:43:13;;;;;;;;;;;13.20;84.00;;;;;;5036062;28;20048;-86
2022/01/26 08:45:42;;;;;;;6.30;2.28;;;13.20;83.60;;;;;;5036915;28;19995;-87
2022/01/26 08:48:09;;;;;;;9.85;2.15;;;13.20;85.10;;;;;;5035623;28;20370;-87
2022/01/26 08:50:35;;;;;;;4.60;1.57;;;13.10;84.40;;;;;;5018142;28;20036;-87
2022/01/26 08:53:02;;;;;;;5.13;2.38;;;13.10;91.30;;;;;;5034235;28;20042;-87
2022/01/26 08:55:28;;;;;;;13.65;2.67;;;13.30;83.70;;;;;;5031644;28;20065;-88
2022/01/26 08:57:54;;;;;;;4.13;2.20;;;13.30;83.60;;;;;;5033286;28;20109;-88
2022/01/26 09:00:21;;;;;;;5.73;1.73;;;13.50;83.70;;;;;;5032831;28;20029;-88
2022/01/26 09:02:47;;;;;;;6.05;2.08;;;13.60;82.20;;;;;;5033364;28;20459;-88
2022/01/26 09:05:13;;;;;;;5.57;2.08;;;13.80;82.60;;;;;;5033264;28;20080;-88
2022/01/26 09:07:43;;;;;;;4.03;1.80;;;14.10;81.80;;;;;;5033367;28;20036;-84
2022/01/26 09:10:10;;;;;;;5.38;2.05;;;14.10;83.90;;;;;;5032278;28;20052;-81
2022/01/26 09:12:40;;;;;;;5.93;2.22;;;14.20;81.40;;;;;;5033115;28;20029;-89
2022/01/26 09:15:07;;;;;;;4.20;2.00;;;14.20;81.50;;;;;;5014885;28;20036;-89
2022/01/26 09:17:35;;;;;;;8.02;1.73;;;14.20;81.00;;;;;;5033515;28;20057;-89
2022/01/26 09:20:06;;;;;;;5.00;1.95;;;13.90;80.80;;;;;;5033384;28;20033;-91
2022/01/26 09:22:32;;;;;;;5.93;2.17;;;14.10;81.30;;;;;;5033236;28;20037;-90
2022/01/26 09:24:58;;;;;;;6.43;2.85;;;14.30;82.10;;;;;;5033855;28;20097;-87
2022/01/26 09:27:24;;;;;;;6.47;3.38;;;14.40;81.00;;;;;;5015780;28;20493;-91
2022/01/26 09:29:51;;;;;;;6.57;3.45;;;14.20;82.20;;;;;;5019641;28;20088;-91
2022/01/26 09:32:18;;;;;;;7.07;2.10;;;14.20;81.50;;;;;;5036324;28;20048;-91
2022/01/26 09:34:44;;;;;;;4.35;2.28;;;14.20;81.50;;;;;;5018909;28;20512;-89
2022/01/26 09:37:13;;;;;;;6.82;2.47;;;14.40;81.50;;;;;;5036128;28;20059;-90
2022/01/26 09:39:47;;;;;;;5.88;2.70;;;14.40;81.30;;;;;;5035176;28;20075;-90
2022/01/26 09:42:14;;;;;;;5.38;2.80;;;14.40;81.60;;;;;;5033895;28;20128;-92
2022/01/26 09:44:41;;;;;;;6.65;2.78;;;14.30;80.80;;;;;;5033700;28;20101;-86
2022/01/26 09:47:07;;;;;;;;;;;14.10;82.20;;;;;;5033320;28;20124;-91
2022/01/26 09:49:35;;;;;;;4.07;2.10;;;14.00;83.70;;;;;;5033282;28;19908;-90
2022/01/26 09:52:07;;;;;;;3.45;1.75;;;13.80;82.00;;;;;;5015291;28;20033;-90
2022/01/26 09:54:33;;;;;;;7.03;2.08;;;13.60;83.00;;;;;;5033196;28;20029;-91
2022/01/26 09:57:05;;;;;;;3.75;1.80;;;13.00;83.60;;;;;;5033346;28;20387;-91
2022/01/26 09:59:32;;;;;;;4.22;1.90;;;12.90;84.70;;;;;;5033117;28;20102;-89
2022/01/26 10:01:59;;;;;;;3.15;1.77;;;13.10;83.80;;;;;;5032592;28;20344;-91
2022/01/26 10:04:31;;;;;;;5.53;1.98;;;13.20;83.60;;;;;;5034732;28;20502;-90
2022/01/26 10:07:18;;;;;;;5.32;2.20;;;13.10;83.30;;;;;;5033413;28;20028;-90
2022/01/26 10:10:03;;;;;;;8.15;2.22;;;13.20;84.30;;;;;;5033253;28;20188;-91
2022/01/26 10:15:28;;;;;;;4.97;1.90;;;13.40;83.70;;;;;;5033109;28;20128;-90
2022/01/26 10:18:15;;;;;;;5.82;2.47;;;13.40;83.30;;;;;;5033590;28;20049;-90
2022/01/26 10:20:46;;;;;;;4.10;2.30;;;13.20;85.60;;;;;;5033460;28;20025;-90
2022/01/26 10:23:19;;;;;;;4.32;2.03;;;12.90;86.70;;;;;;5032676;28;20101;-89
2022/01/26 10:25:59;;;;;;;3.70;1.92;;;13.20;86.90;;;;;;5032956;28;20033;-89
2022/01/26 10:28:25;;;;;;;3.60;1.90;;;13.40;85.60;;;;;;5036655;28;20030;-90
2022/01/26 10:30:51;;;;;;;4.32;2.00;;;13.40;86.00;;;;;;5037283;28;20010;-90
2022/01/26 10:33:17;;;;;;;5.10;2.25;;;13.60;85.40;;;;;;5019175;28;20025;-89
2022/01/26 10:35:44;;;;;;;6.55;2.38;;;13.80;85.40;;;;;;5036571;28;20033;-89
2022/01/26 10:38:10;;;;;;;5.13;2.20;;;14.00;86.50;;;;;;5037146;28;20033;-90
2022/01/26 10:40:38;;;;;;;3.65;1.85;;;14.00;85.70;;;;;;5036651;28;20081;-88
2022/01/26 10:43:12;;;;;;;5.07;2.28;;;14.20;84.90;;;;;;5018833;28;20517;-89
2022/01/26 10:45:59;;;;;;;7.43;2.17;;;14.30;84.90;;;;;;5038571;28;20079;-90
2022/01/26 10:53:47;;;;;;;4.38;1.80;;;14.30;85.20;;;;;;5036448;28;20021;-90
2022/01/26 10:56:15;;;;;;;4.60;1.70;;;14.10;85.50;;;;;;5040284;28;20071;-91
2022/01/26 10:58:42;;;;;;;5.85;1.95;;;14.10;86.40;;;;;;5018753;28;20035;-91
2022/01/26 11:01:08;;;;;;;3.38;1.58;;;14.00;86.60;;;;;;5035934;28;20033;-91
2022/01/26 11:03:35;;;;;;;4.75;2.38;;;14.00;84.40;;;;;;5035320;28;20458;-91
2022/01/26 11:06:07;;;;;;;8.25;2.00;;;14.10;84.60;;;;;;5035653;28;20021;-89
2022/01/26 11:08:40;;;;;;;6.75;2.00;;;13.80;85.10;;;;;;5017714;28;20083;-90
2022/01/26 11:11:17;;;;;;;4.63;2.10;;;14.00;85.40;;;;;;5035379;28;20458;-89
2022/01/26 11:13:43;;;;;;;6.13;2.13;;;13.90;84.70;;;;;;5017606;28;20041;-88
2022/01/26 11:16:10;;;;;;;3.77;1.70;;;14.30;84.20;;;;;;5035418;28;20036;-88
2022/01/26 11:18:54;;;;;;;6.75;1.67;;;14.50;83.20;;;;;;5035907;28;20097;-90
2022/01/26 11:21:27;;;;;;;3.55;1.40;;;14.40;83.30;;;;;;5018523;28;20033;-90
2022/01/26 11:24:09;;;;;;;5.25;1.95;;;14.40;83.00;;;;;;5017833;28;20033;-90
2022/01/26 11:26:38;;;;;;;7.22;1.63;;;14.50;82.30;;;;;;5017676;28;20026;-89
2022/01/26 11:29:15;;;;;;;4.47;1.80;;;14.50;81.60;;;;;;5036081;28;20025;-90
2022/01/26 11:31:45;;;;;;;3.70;1.98;;;14.50;80.40;;;;;;5035545;28;20073;-89
2022/01/26 11:34:11;;;;;;;8.18;2.00;;;14.60;81.50;;;;;;5035397;28;20074;-91
2022/01/26 11:36:44;;;;;;;6.47;1.88;;;14.60;81.70;;;;;;5035581;28;20064;-88
2022/01/26 11:45:04;;;;;;;4.30;1.83;;;14.50;82.40;;;;;;5020475;28;20052;-89
2022/01/26 11:45:39;;;;;;;3.92;1.70;;;14.40;82.60;;;;;;5036032;28;20029;-88
2022/01/26 11:48:12;;;;;;;4.05;1.60;;;14.30;82.10;;;;;;5036012;28;20415;-89
2022/01/26 11:50:42;;;;;;;3.45;1.58;;;14.40;82.80;;;;;;5036831;28;20108;-88
2022/01/26 11:53:11;;;;;;;4.40;1.67;;;14.60;81.90;;;;;;5042247;28;20366;-88
2022/01/26 11:55:42;;;;;;;4.82;1.70;;;14.20;82.90;;;;;;5040552;28;20048;-90
2022/01/26 11:58:32;;;;;;;4.22;1.73;;;14.30;83.00;;;;;;5017806;28;20036;-89
2022/01/26 12:03:57;;;;;;;4.05;1.80;;;14.50;82.80;;;;;;5034108;28;20120;-88
2022/01/26 12:06:31;;;;;;;5.15;1.77;;;14.80;80.90;;;;;;5015489;28;20037;-88
2022/01/26 12:08:59;;;;;;;11.10;2.17;;;14.80;80.90;;;;;;5034928;28;20072;-88
2022/01/26 12:11:29;;;;;;;4.10;1.58;;;14.60;80.50;;;;;;5020633;28;20060;-87
2022/01/26 12:14:03;;;;;;;8.07;1.67;;;14.60;81.10;;;;;;5039048;28;20018;-87
2022/01/26 12:16:39;;;;;;;4.90;1.95;;;14.40;82.40;;;;;;5033714;28;20030;-83
2022/01/26 12:19:28;;;;;;;4.30;1.90;;;14.50;83.00;;;;;;5034938;28;20518;-90
2022/01/26 12:36:23;;;;;;;6.25;2.20;;;14.80;83.50;;;;;;5035007;28;20033;-88
2022/01/26 12:38:58;;;;;;;6.15;2.33;;;14.80;83.50;;;;;;5017835;28;20037;-88
2022/01/26 12:43:58;;;;;;;4.87;2.33;;;14.50;84.70;;;;;;5035442;28;20408;-88
2022/01/26 12:46:27;;;;;;;6.13;2.38;;;14.30;86.80;;;;;;5034280;28;20262;-89
2022/01/26 12:49:10;;;;;;;5.63;2.05;;;14.40;86.10;;;;;;5015703;28;20030;-88
2022/01/26 12:51:54;;;;;;;4.03;2.17;;;14.60;85.80;;;;;;5032542;28;20025;-89
2022/01/26 12:54:20;;;;;;;6.63;2.22;;;14.50;85.60;;;;;;5033569;28;20037;-89
2022/01/26 12:56:47;;;;;;;4.10;1.77;;;14.70;85.20;;;;;;5035130;28;20029;-88
2022/01/26 12:59:16;;;;;;;9.05;1.80;;;14.90;85.20;;;;;;5033363;28;20102;-90
2022/01/26 13:01:46;;;;;;;5.38;1.90;;;15.10;84.70;;;;;;5038505;23;20035;-85
2022/01/26 13:04:16;;;;;;;9.25;2.20;;;15.10;85.70;;;;;;5033909;28;20041;-89
2022/01/26 13:06:47;;;;;;;5.68;1.50;;;14.90;85.40;;;;;;5032722;28;20455;-89
2022/01/26 13:09:24;;;;;;;4.07;1.60;;;15.00;85.70;;;;;;5033743;28;20025;-90
2022/01/26 13:11:55;;;;;;;3.92;1.85;;;15.20;85.40;;;;;;5033796;28;20029;-84
2022/01/26 13:14:26;;;;;;;4.68;1.67;;;15.10;87.10;;;;;;5015806;28;20474;-88
2022/01/26 13:17:14;;;;;;;4.65;1.63;;;15.10;87.30;;;;;;5033482;28;20385;-88
2022/01/26 13:32:04;;;;;;;3.70;1.63;;;15.20;88.70;;;;;;4952693;28;20031;-90
2022/01/26 13:37:16;;;;;;;3.80;1.80;;;15.10;88.10;;;;;;4953493;29;20469;-89
2022/01/26 13:45:51;;;;;;;6.00;1.60;;;15.30;86.70;;;;;;4934292;29;20516;-88
2022/01/26 13:51:43;;;;;;;8.77;2.00;;;15.40;87.40;;;;;;4919391;29;20046;-90
2022/01/26 13:54:10;;;;;;;4.18;1.50;;;15.30;88.00;;;;;;4947427;29;20155;-90
2022/01/26 13:56:50;;;;;;;4.03;1.65;;;15.40;88.60;;;;;;4953077;29;20090;-92
2022/01/26 13:59:25;;;;;;;4.03;1.60;;;15.30;89.40;;;;;;4954240;29;20125;-90
2022/01/26 14:02:03;;;;;;;7.45;2.03;;;15.50;89.30;;;;;;4977286;28;20061;-90
2022/01/26 14:04:29;;;;;;;6.60;1.90;;;15.50;89.70;;;;;;5033365;28;20056;-90
2022/01/26 14:06:55;;;;;;;5.15;1.73;;;15.30;89.60;;;;;;5015131;28;20488;-90
2022/01/26 14:09:22;;;;;;;5.23;1.63;;;15.30;90.10;;;;;;5032762;28;20386;-90
2022/01/26 14:11:49;;;;;;;4.75;1.70;;;15.40;90.00;;;;;;5032870;28;20104;-88
2022/01/26 14:14:23;;;;;;;;;;;15.50;89.10;;;;;;5032864;28;20041;-87
2022/01/26 14:16:57;;;;;;;5.38;2.17;;;15.40;89.40;;;;;;5033487;28;19955;-90
2022/01/26 14:22:27;;;;;;;7.75;2.03;;;15.40;89.90;;;;;;5033081;28;20064;-89
2022/01/26 14:25:04;;;;;;;4.18;1.65;;;15.40;91.20;;;;;;5033029;28;20076;-89
2022/01/26 14:27:43;;;;;;;6.72;2.03;;;15.40;91.00;;;;;;5015344;28;20025;-91
2022/01/26 14:30:29;;;;;;;6.35;2.30;;;15.20;90.40;;;;;;5015260;28;20025;-91
2022/01/26 14:40:56;;;;;;;5.13;2.10;;;15.20;91.20;;;;;;5032725;28;20160;-90
2022/01/26 15:11:53;;;;;;;5.30;2.05;;;14.10;85.70;;;;;;5032405;28;20036;-85
2022/01/26 15:40:45;;;;;;;7.68;2.25;;;13.60;87.60;;;;;;5035511;28;20410;-89
2022/01/26 15:43:41;;;;;;;8.23;2.53;;;13.40;88.30;;;;;;5035957;28;20025;-89
2022/01/26 16:04:21;;;;;;;6.18;2.03;;;13.10;90.10;;;;;;5034649;28;20075;-89
2022/01/26 16:07:52;;;;;;;4.45;2.10;;;13.00;90.40;;;;;;5033930;28;20037;-87
2022/01/26 16:16:31;;;;;;;4.43;2.42;;;12.70;90.60;;;;;;5033905;28;20064;-89
2022/01/26 16:26:58;;;;;;;4.78;2.25;;;12.10;91.50;;;;;;5035012;28;20032;-89
2022/01/26 18:32:08;;;;;;;4.72;2.40;;;9.80;94.50;;;;;;5012116;28;20076;-80
2022/01/26 18:50:48;;;;;;;7.05;3.30;;;9.70;96.50;;;;;;5016063;28;20033;-80
2022/01/26 18:53:14;;;;;;;9.53;3.37;;;9.60;95.50;;;;;;5015887;28;20029;-80
2022/01/26 18:55:41;;;;;;;6.85;3.55;;;9.70;95.80;;;;;;5015435;28;20091;-80
2022/01/26 18:58:07;;;;;;;7.15;3.20;;;9.60;95.80;;;;;;4997724;28;20458;-80
2022/01/26 19:00:33;;;;;;;10.30;4.07;;;9.70;95.70;;;;;;5015830;28;20037;-79
2022/01/26 19:03:00;;;;;;;7.43;3.63;;;9.60;96.00;;;;;;5015292;28;20050;-78
2022/01/26 19:05:27;;;;;;;10.88;3.45;;;9.60;96.40;;;;;;5015910;28;20037;-77
2022/01/26 19:07:55;;;;;;;8.38;4.00;;;9.60;97.10;;;;;;5015824;28;20352;-76
2022/01/26 19:10:22;;;;;;;5.70;2.90;;;9.70;96.30;;;;;;5015240;28;20455;-79
2022/01/26 19:12:49;;;;;;;5.90;2.80;;;9.70;96.00;;;;;;5015079;28;20030;-79
2022/01/26 19:15:19;;;;;;;7.45;3.20;;;9.60;96.30;;;;;;5014895;28;20030;-76
2022/01/26 19:17:52;;;;;;;3.83;2.38;;;9.70;96.50;;;;;;4997433;28;20064;-77
2022/01/26 19:20:40;;;;;;;8.55;2.88;;;9.70;95.70;;;;;;5015033;28;20390;-78
2022/01/26 19:23:25;;;;;;;5.65;2.28;;;9.70;95.70;;;;;;5015012;28;20056;-79
2022/01/26 19:26:02;;;;;;;6.00;2.53;;;9.60;95.90;;;;;;5015253;28;20467;-77
2022/01/26 19:28:36;;;;;;;5.90;2.97;;;9.50;95.90;;;;;;5012876;28;20121;-78